sensor_id;sensor_type;location;lat;lon;timestamp;P1;durP1;ratioP1;P2;durP2;ratioP2
53519;SDS011;39397;53.204;5.778;2022-10-17T00:00:40;9.98;;;2.20;;
53519;SDS011;39397;53.204;5.778;2022-10-17T00:03:06;11.68;;;1.88;;
53519;SDS011;39397;53.204;5.778;2022-10-17T00:05:32;14.73;;;2.30;;
53519;SDS011;39397;53.204;5.778;2022-10-17T00:07:58;9.18;;;1.88;;
53519;SDS011;39397;53.204;5.778;2022-10-17T00:10:24;10.77;;;2.35;;
53519;SDS011;39397;53.204;5.778;2022-10-17T00:12:50;8.88;;;2.40;;
53519;SDS011;39397;53.204;5.778;2022-10-17T00:15:17;7.03;;;1.92;;
53519;SDS011;39397;53.204;5.778;2022-10-17T00:17:44;7.53;;;1.90;;
53519;SDS011;39397;53.204;5.778;2022-10-17T00:20:10;6.20;;;1.98;;
53519;SDS011;39397;53.204;5.778;2022-10-17T00:22:36;8.05;;;2.05;;
53519;SDS011;39397;53.204;5.778;2022-10-17T00:25:02;10.25;;;2.30;;
53519;SDS011;39397;53.204;5.778;2022-10-17T00:27:28;7.97;;;1.85;;
53519;SDS011;39397;53.204;5.778;2022-10-17T00:29:54;9.60;;;3.08;;
53519;SDS011;39397;53.204;5.778;2022-10-17T00:32:19;9.55;;;2.58;;
53519;SDS011;39397;53.204;5.778;2022-10-17T00:34:45;9.13;;;2.67;;
53519;SDS011;39397;53.204;5.778;2022-10-17T00:37:11;9.82;;;2.00;;
53519;SDS011;39397;53.204;5.778;2022-10-17T00:39:37;8.43;;;2.33;;
53519;SDS011;39397;53.204;5.778;2022-10-17T00:42:03;4.95;;;1.90;;
53519;SDS011;39397;53.204;5.778;2022-10-17T00:46:58;7.55;;;2.15;;
53519;SDS011;39397;53.204;5.778;2022-10-17T00:49:29;8.48;;;1.92;;
53519;SDS011;39397;53.204;5.778;2022-10-17T00:52:02;9.20;;;2.00;;
53519;SDS011;39397;53.204;5.778;2022-10-17T00:54:33;10.00;;;2.03;;
53519;SDS011;39397;53.204;5.778;2022-10-17T00:57:01;7.88;;;2.03;;
53519;SDS011;39397;53.204;5.778;2022-10-17T00:59:27;15.23;;;2.53;;
53519;SDS011;39397;53.204;5.778;2022-10-17T01:02:02;8.30;;;2.17;;
53519;SDS011;39397;53.204;5.778;2022-10-17T01:04:30;8.80;;;2.50;;
53519;SDS011;39397;53.204;5.778;2022-10-17T01:06:56;6.65;;;2.13;;
53519;SDS011;39397;53.204;5.778;2022-10-17T01:09:22;5.82;;;2.72;;
53519;SDS011;39397;53.204;5.778;2022-10-17T01:14:27;9.75;;;2.45;;
53519;SDS011;39397;53.204;5.778;2022-10-17T01:29:05;8.73;;;2.55;;
53519;SDS011;39397;53.204;5.778;2022-10-17T01:31:43;7.47;;;2.95;;
53519;SDS011;39397;53.204;5.778;2022-10-17T01:34:20;6.88;;;3.08;;
53519;SDS011;39397;53.204;5.778;2022-10-17T01:44:35;9.48;;;3.20;;
53519;SDS011;39397;53.204;5.778;2022-10-17T01:47:10;8.02;;;3.05;;
53519;SDS011;39397;53.204;5.778;2022-10-17T01:49:42;8.48;;;3.33;;
53519;SDS011;39397;53.204;5.778;2022-10-17T01:52:20;10.20;;;3.70;;
53519;SDS011;39397;53.204;5.778;2022-10-17T01:57:49;9.30;;;4.03;;
53519;SDS011;39397;53.204;5.778;2022-10-17T02:00:20;9.75;;;4.10;;
53519;SDS011;39397;53.204;5.778;2022-10-17T02:02:47;9.00;;;4.05;;
53519;SDS011;39397;53.204;5.778;2022-10-17T02:05:17;9.10;;;3.90;;
53519;SDS011;39397;53.204;5.778;2022-10-17T02:07:48;9.52;;;3.75;;
53519;SDS011;39397;53.204;5.778;2022-10-17T02:10:16;8.80;;;4.25;;
53519;SDS011;39397;53.204;5.778;2022-10-17T02:12:53;9.30;;;4.53;;
53519;SDS011;39397;53.204;5.778;2022-10-17T02:20:52;12.75;;;4.60;;
53519;SDS011;39397;53.204;5.778;2022-10-17T02:23:42;10.35;;;4.47;;
53519;SDS011;39397;53.204;5.778;2022-10-17T02:26:51;12.43;;;4.88;;
53519;SDS011;39397;53.204;5.778;2022-10-17T02:29:18;10.32;;;4.63;;
53519;SDS011;39397;53.204;5.778;2022-10-17T02:31:58;13.57;;;4.65;;
53519;SDS011;39397;53.204;5.778;2022-10-17T02:34:39;8.05;;;4.38;;
53519;SDS011;39397;53.204;5.778;2022-10-17T02:37:15;9.65;;;4.75;;
53519;SDS011;39397;53.204;5.778;2022-10-17T02:39:45;12.27;;;5.38;;
53519;SDS011;39397;53.204;5.778;2022-10-17T02:42:12;8.50;;;5.45;;
53519;SDS011;39397;53.204;5.778;2022-10-17T02:44:39;8.85;;;5.38;;
53519;SDS011;39397;53.204;5.778;2022-10-17T02:47:11;11.27;;;5.43;;
53519;SDS011;39397;53.204;5.778;2022-10-17T02:49:52;16.57;;;6.17;;
53519;SDS011;39397;53.204;5.778;2022-10-17T02:55:09;14.93;;;6.28;;
53519;SDS011;39397;53.204;5.778;2022-10-17T02:57:41;13.40;;;6.30;;
53519;SDS011;39397;53.204;5.778;2022-10-17T03:00:16;13.82;;;5.97;;
53519;SDS011;39397;53.204;5.778;2022-10-17T03:02:45;10.30;;;6.13;;
53519;SDS011;39397;53.204;5.778;2022-10-17T03:05:14;17.75;;;6.43;;
53519;SDS011;39397;53.204;5.778;2022-10-17T03:07:42;13.18;;;6.65;;
53519;SDS011;39397;53.204;5.778;2022-10-17T03:10:07;13.32;;;7.47;;
53519;SDS011;39397;53.204;5.778;2022-10-17T03:12:33;11.27;;;6.75;;
53519;SDS011;39397;53.204;5.778;2022-10-17T03:14:59;11.07;;;7.10;;
53519;SDS011;39397;53.204;5.778;2022-10-17T03:17:24;12.95;;;7.35;;
53519;SDS011;39397;53.204;5.778;2022-10-17T03:19:50;13.48;;;7.25;;
53519;SDS011;39397;53.204;5.778;2022-10-17T03:22:16;14.70;;;7.75;;
53519;SDS011;39397;53.204;5.778;2022-10-17T03:24:42;12.85;;;8.32;;
53519;SDS011;39397;53.204;5.778;2022-10-17T03:27:07;12.85;;;8.23;;
53519;SDS011;39397;53.204;5.778;2022-10-17T03:29:33;11.05;;;8.32;;
53519;SDS011;39397;53.204;5.778;2022-10-17T03:31:58;15.00;;;8.73;;
53519;SDS011;39397;53.204;5.778;2022-10-17T03:34:24;15.02;;;9.02;;
53519;SDS011;39397;53.204;5.778;2022-10-17T03:36:50;14.85;;;9.80;;
53519;SDS011;39397;53.204;5.778;2022-10-17T03:39:15;16.40;;;10.38;;
53519;SDS011;39397;53.204;5.778;2022-10-17T03:41:41;16.15;;;9.77;;
53519;SDS011;39397;53.204;5.778;2022-10-17T03:44:07;16.52;;;10.00;;
53519;SDS011;39397;53.204;5.778;2022-10-17T03:46:32;15.02;;;10.13;;
53519;SDS011;39397;53.204;5.778;2022-10-17T03:48:58;17.45;;;11.00;;
53519;SDS011;39397;53.204;5.778;2022-10-17T03:51:24;17.48;;;10.90;;
53519;SDS011;39397;53.204;5.778;2022-10-17T03:53:50;20.08;;;11.10;;
53519;SDS011;39397;53.204;5.778;2022-10-17T03:56:17;15.98;;;11.02;;
53519;SDS011;39397;53.204;5.778;2022-10-17T03:58:44;14.18;;;11.57;;
53519;SDS011;39397;53.204;5.778;2022-10-17T04:01:11;15.98;;;11.55;;
53519;SDS011;39397;53.204;5.778;2022-10-17T04:03:39;15.85;;;11.45;;
53519;SDS011;39397;53.204;5.778;2022-10-17T04:06:05;18.17;;;11.95;;
53519;SDS011;39397;53.204;5.778;2022-10-17T04:08:31;20.65;;;12.48;;
53519;SDS011;39397;53.204;5.778;2022-10-17T04:11:01;16.98;;;11.60;;
53519;SDS011;39397;53.204;5.778;2022-10-17T04:13:28;22.38;;;13.55;;
53519;SDS011;39397;53.204;5.778;2022-10-17T04:18:22;17.33;;;13.18;;
53519;SDS011;39397;53.204;5.778;2022-10-17T04:20:47;20.63;;;14.32;;
53519;SDS011;39397;53.204;5.778;2022-10-17T04:23:14;19.45;;;13.48;;
53519;SDS011;39397;53.204;5.778;2022-10-17T04:25:40;19.98;;;13.57;;
53519;SDS011;39397;53.204;5.778;2022-10-17T04:28:05;18.95;;;14.85;;
53519;SDS011;39397;53.204;5.778;2022-10-17T04:30:31;20.70;;;14.20;;
53519;SDS011;39397;53.204;5.778;2022-10-17T04:32:57;24.55;;;13.40;;
53519;SDS011;39397;53.204;5.778;2022-10-17T04:35:23;19.45;;;14.07;;
53519;SDS011;39397;53.204;5.778;2022-10-17T04:37:48;17.75;;;14.52;;
53519;SDS011;39397;53.204;5.778;2022-10-17T04:40:14;20.48;;;14.27;;
53519;SDS011;39397;53.204;5.778;2022-10-17T04:42:40;20.48;;;14.85;;
53519;SDS011;39397;53.204;5.778;2022-10-17T04:45:05;19.27;;;15.40;;
53519;SDS011;39397;53.204;5.778;2022-10-17T04:47:31;20.52;;;14.95;;
53519;SDS011;39397;53.204;5.778;2022-10-17T04:49:57;21.27;;;14.95;;
53519;SDS011;39397;53.204;5.778;2022-10-17T04:52:23;18.50;;;14.50;;
53519;SDS011;39397;53.204;5.778;2022-10-17T04:54:49;17.98;;;15.25;;
53519;SDS011;39397;53.204;5.778;2022-10-17T04:57:15;24.15;;;16.00;;
53519;SDS011;39397;53.204;5.778;2022-10-17T04:59:41;20.98;;;15.00;;
53519;SDS011;39397;53.204;5.778;2022-10-17T05:02:07;20.38;;;16.00;;
53519;SDS011;39397;53.204;5.778;2022-10-17T05:04:32;26.98;;;16.13;;
53519;SDS011;39397;53.204;5.778;2022-10-17T05:06:58;22.92;;;16.27;;
53519;SDS011;39397;53.204;5.778;2022-10-17T05:09:24;19.60;;;15.43;;
53519;SDS011;39397;53.204;5.778;2022-10-17T05:11:49;19.40;;;15.45;;
53519;SDS011;39397;53.204;5.778;2022-10-17T05:14:15;19.63;;;15.77;;
53519;SDS011;39397;53.204;5.778;2022-10-17T05:16:41;19.90;;;15.30;;
53519;SDS011;39397;53.204;5.778;2022-10-17T05:19:07;20.33;;;15.77;;
53519;SDS011;39397;53.204;5.778;2022-10-17T05:21:32;21.48;;;16.05;;
53519;SDS011;39397;53.204;5.778;2022-10-17T05:23:58;18.75;;;14.88;;
53519;SDS011;39397;53.204;5.778;2022-10-17T05:26:24;23.88;;;16.45;;
53519;SDS011;39397;53.204;5.778;2022-10-17T05:28:50;22.05;;;15.65;;
53519;SDS011;39397;53.204;5.778;2022-10-17T05:31:16;21.85;;;15.38;;
53519;SDS011;39397;53.204;5.778;2022-10-17T05:33:42;20.02;;;15.52;;
53519;SDS011;39397;53.204;5.778;2022-10-17T05:36:08;20.00;;;15.43;;
53519;SDS011;39397;53.204;5.778;2022-10-17T05:38:34;25.63;;;16.42;;
53519;SDS011;39397;53.204;5.778;2022-10-17T05:41:01;22.45;;;15.00;;
53519;SDS011;39397;53.204;5.778;2022-10-17T05:43:28;24.30;;;14.75;;
53519;SDS011;39397;53.204;5.778;2022-10-17T05:45:54;21.95;;;16.02;;
53519;SDS011;39397;53.204;5.778;2022-10-17T05:48:20;22.70;;;16.52;;
53519;SDS011;39397;53.204;5.778;2022-10-17T05:50:46;24.55;;;16.17;;
53519;SDS011;39397;53.204;5.778;2022-10-17T05:53:13;21.27;;;15.57;;
53519;SDS011;39397;53.204;5.778;2022-10-17T05:55:39;22.52;;;16.23;;
53519;SDS011;39397;53.204;5.778;2022-10-17T05:58:04;21.02;;;15.45;;
53519;SDS011;39397;53.204;5.778;2022-10-17T06:00:30;22.00;;;15.13;;
53519;SDS011;39397;53.204;5.778;2022-10-17T06:02:56;22.98;;;16.00;;
53519;SDS011;39397;53.204;5.778;2022-10-17T06:05:21;20.80;;;15.77;;
53519;SDS011;39397;53.204;5.778;2022-10-17T06:07:47;22.10;;;15.27;;
53519;SDS011;39397;53.204;5.778;2022-10-17T06:10:14;20.85;;;15.40;;
53519;SDS011;39397;53.204;5.778;2022-10-17T06:12:41;20.52;;;15.05;;
53519;SDS011;39397;53.204;5.778;2022-10-17T06:15:08;20.38;;;14.75;;
53519;SDS011;39397;53.204;5.778;2022-10-17T06:17:34;20.00;;;14.30;;
53519;SDS011;39397;53.204;5.778;2022-10-17T06:20:00;19.75;;;13.95;;
53519;SDS011;39397;53.204;5.778;2022-10-17T06:22:26;20.58;;;14.13;;
53519;SDS011;39397;53.204;5.778;2022-10-17T06:24:52;19.48;;;14.20;;
53519;SDS011;39397;53.204;5.778;2022-10-17T06:27:18;20.52;;;14.77;;
53519;SDS011;39397;53.204;5.778;2022-10-17T06:29:44;21.60;;;15.00;;
53519;SDS011;39397;53.204;5.778;2022-10-17T06:32:11;21.42;;;14.98;;
53519;SDS011;39397;53.204;5.778;2022-10-17T06:34:36;21.20;;;14.65;;
53519;SDS011;39397;53.204;5.778;2022-10-17T06:37:02;19.67;;;14.23;;
53519;SDS011;39397;53.204;5.778;2022-10-17T06:39:27;20.67;;;14.15;;
53519;SDS011;39397;53.204;5.778;2022-10-17T06:41:58;22.42;;;13.55;;
53519;SDS011;39397;53.204;5.778;2022-10-17T06:44:25;20.33;;;13.98;;
53519;SDS011;39397;53.204;5.778;2022-10-17T06:46:55;17.02;;;13.35;;
53519;SDS011;39397;53.204;5.778;2022-10-17T06:49:21;18.73;;;14.00;;
53519;SDS011;39397;53.204;5.778;2022-10-17T06:51:46;18.33;;;13.52;;
53519;SDS011;39397;53.204;5.778;2022-10-17T06:54:12;15.73;;;13.05;;
53519;SDS011;39397;53.204;5.778;2022-10-17T06:56:38;15.77;;;12.35;;
53519;SDS011;39397;53.204;5.778;2022-10-17T06:59:03;19.35;;;13.35;;
53519;SDS011;39397;53.204;5.778;2022-10-17T07:01:29;15.45;;;12.07;;
53519;SDS011;39397;53.204;5.778;2022-10-17T07:03:56;16.80;;;12.75;;
53519;SDS011;39397;53.204;5.778;2022-10-17T07:06:22;14.85;;;11.13;;
53519;SDS011;39397;53.204;5.778;2022-10-17T07:08:51;13.52;;;11.13;;
53519;SDS011;39397;53.204;5.778;2022-10-17T07:11:17;14.20;;;10.77;;
53519;SDS011;39397;53.204;5.778;2022-10-17T07:13:45;17.88;;;12.40;;
53519;SDS011;39397;53.204;5.778;2022-10-17T07:16:11;16.60;;;12.00;;
53519;SDS011;39397;53.204;5.778;2022-10-17T07:18:38;14.57;;;10.85;;
53519;SDS011;39397;53.204;5.778;2022-10-17T07:21:05;18.42;;;11.95;;
53519;SDS011;39397;53.204;5.778;2022-10-17T07:23:32;12.80;;;10.48;;
53519;SDS011;39397;53.204;5.778;2022-10-17T07:26:00;15.07;;;10.32;;
53519;SDS011;39397;53.204;5.778;2022-10-17T07:28:32;16.40;;;11.05;;
53519;SDS011;39397;53.204;5.778;2022-10-17T07:31:06;12.30;;;10.30;;
53519;SDS011;39397;53.204;5.778;2022-10-17T07:33:33;12.52;;;9.70;;
53519;SDS011;39397;53.204;5.778;2022-10-17T07:35:59;16.02;;;9.85;;
53519;SDS011;39397;53.204;5.778;2022-10-17T07:38:26;17.58;;;10.10;;
53519;SDS011;39397;53.204;5.778;2022-10-17T07:40:56;12.88;;;9.85;;
53519;SDS011;39397;53.204;5.778;2022-10-17T07:43:23;13.82;;;9.05;;
53519;SDS011;39397;53.204;5.778;2022-10-17T07:45:50;12.32;;;9.00;;
53519;SDS011;39397;53.204;5.778;2022-10-17T07:48:16;12.18;;;8.48;;
53519;SDS011;39397;53.204;5.778;2022-10-17T07:50:42;11.98;;;9.32;;
53519;SDS011;39397;53.204;5.778;2022-10-17T07:53:08;10.00;;;8.45;;
53519;SDS011;39397;53.204;5.778;2022-10-17T07:55:35;11.43;;;9.70;;
53519;SDS011;39397;53.204;5.778;2022-10-17T07:58:02;15.30;;;8.48;;
53519;SDS011;39397;53.204;5.778;2022-10-17T08:00:27;12.35;;;8.73;;
53519;SDS011;39397;53.204;5.778;2022-10-17T08:02:53;13.50;;;8.13;;
53519;SDS011;39397;53.204;5.778;2022-10-17T08:05:19;11.20;;;8.50;;
53519;SDS011;39397;53.204;5.778;2022-10-17T08:07:44;12.27;;;8.38;;
53519;SDS011;39397;53.204;5.778;2022-10-17T08:10:11;15.32;;;8.63;;
53519;SDS011;39397;53.204;5.778;2022-10-17T08:12:38;10.93;;;8.00;;
53519;SDS011;39397;53.204;5.778;2022-10-17T08:15:04;11.88;;;7.93;;
53519;SDS011;39397;53.204;5.778;2022-10-17T08:17:32;9.23;;;7.30;;
53519;SDS011;39397;53.204;5.778;2022-10-17T08:19:59;12.98;;;8.02;;
53519;SDS011;39397;53.204;5.778;2022-10-17T08:22:25;8.95;;;7.45;;
53519;SDS011;39397;53.204;5.778;2022-10-17T08:24:51;12.35;;;7.80;;
53519;SDS011;39397;53.204;5.778;2022-10-17T08:27:16;9.70;;;7.60;;
53519;SDS011;39397;53.204;5.778;2022-10-17T08:29:47;11.88;;;7.72;;
53519;SDS011;39397;53.204;5.778;2022-10-17T08:32:17;12.52;;;7.65;;
53519;SDS011;39397;53.204;5.778;2022-10-17T08:34:44;12.70;;;8.45;;
53519;SDS011;39397;53.204;5.778;2022-10-17T08:37:10;11.05;;;8.43;;
53519;SDS011;39397;53.204;5.778;2022-10-17T08:39:38;9.68;;;7.35;;
53519;SDS011;39397;53.204;5.778;2022-10-17T08:47:38;11.82;;;8.20;;
53519;SDS011;39397;53.204;5.778;2022-10-17T08:50:12;11.43;;;7.88;;
53519;SDS011;39397;53.204;5.778;2022-10-17T08:52:44;9.68;;;7.50;;
53519;SDS011;39397;53.204;5.778;2022-10-17T08:55:17;14.05;;;8.57;;
53519;SDS011;39397;53.204;5.778;2022-10-17T08:58:14;12.63;;;7.40;;
53519;SDS011;39397;53.204;5.778;2022-10-17T09:00:48;11.15;;;7.90;;
53519;SDS011;39397;53.204;5.778;2022-10-17T09:06:18;12.40;;;8.05;;
53519;SDS011;39397;53.204;5.778;2022-10-17T09:19:34;13.70;;;9.23;;
53519;SDS011;39397;53.204;5.778;2022-10-17T09:24:41;12.27;;;8.93;;
53519;SDS011;39397;53.204;5.778;2022-10-17T09:27:24;11.70;;;8.60;;
53519;SDS011;39397;53.204;5.778;2022-10-17T09:30:16;11.98;;;8.80;;
53519;SDS011;39397;53.204;5.778;2022-10-17T09:32:52;11.00;;;7.80;;
53519;SDS011;39397;53.204;5.778;2022-10-17T09:35:18;15.45;;;8.75;;
53519;SDS011;39397;53.204;5.778;2022-10-17T09:37:45;14.40;;;9.07;;
53519;SDS011;39397;53.204;5.778;2022-10-17T09:40:32;15.15;;;9.13;;
53519;SDS011;39397;53.204;5.778;2022-10-17T09:43:03;13.73;;;9.90;;
53519;SDS011;39397;53.204;5.778;2022-10-17T09:45:31;15.18;;;10.02;;
53519;SDS011;39397;53.204;5.778;2022-10-17T09:50:34;15.85;;;9.48;;
53519;SDS011;39397;53.204;5.778;2022-10-17T09:55:47;19.20;;;9.73;;
53519;SDS011;39397;53.204;5.778;2022-10-17T09:58:20;16.88;;;11.15;;
53519;SDS011;39397;53.204;5.778;2022-10-17T10:00:46;14.73;;;10.45;;
53519;SDS011;39397;53.204;5.778;2022-10-17T10:03:14;15.27;;;11.05;;
53519;SDS011;39397;53.204;5.778;2022-10-17T10:05:41;15.95;;;10.98;;
53519;SDS011;39397;53.204;5.778;2022-10-17T10:08:14;13.85;;;10.40;;
53519;SDS011;39397;53.204;5.778;2022-10-17T10:10:42;21.58;;;14.50;;
53519;SDS011;39397;53.204;5.778;2022-10-17T10:15:38;16.55;;;11.65;;
53519;SDS011;39397;53.204;5.778;2022-10-17T10:24:03;19.48;;;11.05;;
53519;SDS011;39397;53.204;5.778;2022-10-17T10:26:45;17.48;;;10.95;;
53519;SDS011;39397;53.204;5.778;2022-10-17T10:31:48;17.15;;;10.20;;
53519;SDS011;39397;53.204;5.778;2022-10-17T10:36:42;16.45;;;11.57;;
53519;SDS011;39397;53.204;5.778;2022-10-17T10:39:31;15.18;;;10.75;;
53519;SDS011;39397;53.204;5.778;2022-10-17T10:42:18;16.80;;;11.43;;
53519;SDS011;39397;53.204;5.778;2022-10-17T10:47:50;16.90;;;11.50;;
53519;SDS011;39397;53.204;5.778;2022-10-17T10:52:47;15.85;;;12.15;;
53519;SDS011;39397;53.204;5.778;2022-10-17T10:55:28;13.70;;;11.48;;
53519;SDS011;39397;53.204;5.778;2022-10-17T10:57:58;15.43;;;11.00;;
53519;SDS011;39397;53.204;5.778;2022-10-17T11:00:27;15.63;;;11.20;;
53519;SDS011;39397;53.204;5.778;2022-10-17T11:03:00;14.80;;;11.57;;
53519;SDS011;39397;53.204;5.778;2022-10-17T11:05:40;12.48;;;10.38;;
53519;SDS011;39397;53.204;5.778;2022-10-17T11:13:31;14.38;;;10.95;;
53519;SDS011;39397;53.204;5.778;2022-10-17T11:16:11;13.93;;;10.57;;
53519;SDS011;39397;53.204;5.778;2022-10-17T11:18:43;15.40;;;10.38;;
53519;SDS011;39397;53.204;5.778;2022-10-17T11:26:31;18.05;;;10.95;;
53519;SDS011;39397;53.204;5.778;2022-10-17T11:29:01;14.52;;;9.73;;
53519;SDS011;39397;53.204;5.778;2022-10-17T11:31:31;16.45;;;8.60;;
53519;SDS011;39397;53.204;5.778;2022-10-17T11:36:47;13.52;;;8.20;;
53519;SDS011;39397;53.204;5.778;2022-10-17T11:39:59;12.73;;;8.60;;
53519;SDS011;39397;53.204;5.778;2022-10-17T11:42:11;12.45;;;8.02;;
53519;SDS011;39397;53.204;5.778;2022-10-17T11:44:41;11.52;;;7.55;;
53519;SDS011;39397;53.204;5.778;2022-10-17T11:47:28;11.55;;;7.68;;
53519;SDS011;39397;53.204;5.778;2022-10-17T11:52:55;10.60;;;7.90;;
53519;SDS011;39397;53.204;5.778;2022-10-17T11:55:36;12.32;;;8.82;;
53519;SDS011;39397;53.204;5.778;2022-10-17T12:12:25;17.30;;;8.88;;
53519;SDS011;39397;53.204;5.778;2022-10-17T12:14:53;14.02;;;8.27;;
53519;SDS011;39397;53.204;5.778;2022-10-17T12:17:43;15.32;;;9.57;;
53519;SDS011;39397;53.204;5.778;2022-10-17T12:22:45;14.68;;;9.95;;
53519;SDS011;39397;53.204;5.778;2022-10-17T12:25:16;13.73;;;8.02;;
53519;SDS011;39397;53.204;5.778;2022-10-17T12:27:45;13.07;;;7.68;;
53519;SDS011;39397;53.204;5.778;2022-10-17T12:35:19;14.05;;;6.97;;
53519;SDS011;39397;53.204;5.778;2022-10-17T12:45:49;10.32;;;5.50;;
53519;SDS011;39397;53.204;5.778;2022-10-17T12:48:58;9.05;;;4.53;;
53519;SDS011;39397;53.204;5.778;2022-10-17T12:56:37;6.88;;;3.80;;
53519;SDS011;39397;53.204;5.778;2022-10-17T12:59:08;10.52;;;4.80;;
53519;SDS011;39397;53.204;5.778;2022-10-17T13:01:42;8.70;;;4.18;;
53519;SDS011;39397;53.204;5.778;2022-10-17T13:04:11;9.35;;;3.90;;
53519;SDS011;39397;53.204;5.778;2022-10-17T13:06:38;9.25;;;3.95;;
53519;SDS011;39397;53.204;5.778;2022-10-17T13:11:52;7.63;;;3.65;;
53519;SDS011;39397;53.204;5.778;2022-10-17T13:14:20;9.27;;;3.50;;
53519;SDS011;39397;53.204;5.778;2022-10-17T13:16:54;7.85;;;3.42;;
53519;SDS011;39397;53.204;5.778;2022-10-17T13:19:21;7.85;;;3.40;;
53519;SDS011;39397;53.204;5.778;2022-10-17T13:22:09;10.33;;;4.00;;
53519;SDS011;39397;53.204;5.778;2022-10-17T13:24:41;7.82;;;3.63;;
53519;SDS011;39397;53.204;5.778;2022-10-17T13:29:56;12.02;;;3.60;;
53519;SDS011;39397;53.204;5.778;2022-10-17T13:32:24;11.68;;;3.60;;
53519;SDS011;39397;53.204;5.778;2022-10-17T13:35:04;8.02;;;3.83;;
53519;SDS011;39397;53.204;5.778;2022-10-17T13:37:31;10.38;;;3.78;;
53519;SDS011;39397;53.204;5.778;2022-10-17T13:39:59;9.95;;;4.50;;
53519;SDS011;39397;53.204;5.778;2022-10-17T13:42:26;9.63;;;4.00;;
53519;SDS011;39397;53.204;5.778;2022-10-17T13:45:02;8.27;;;3.15;;
53519;SDS011;39397;53.204;5.778;2022-10-17T13:47:29;11.02;;;4.20;;
53519;SDS011;39397;53.204;5.778;2022-10-17T13:50:00;8.02;;;3.20;;
53519;SDS011;39397;53.204;5.778;2022-10-17T13:52:27;8.68;;;3.28;;
53519;SDS011;39397;53.204;5.778;2022-10-17T13:54:54;6.72;;;3.15;;
53519;SDS011;39397;53.204;5.778;2022-10-17T13:57:30;9.63;;;3.10;;
53519;SDS011;39397;53.204;5.778;2022-10-17T14:00:00;11.25;;;4.65;;
53519;SDS011;39397;53.204;5.778;2022-10-17T14:02:30;11.60;;;3.58;;
53519;SDS011;39397;53.204;5.778;2022-10-17T14:07:44;10.68;;;3.25;;
53519;SDS011;39397;53.204;5.778;2022-10-17T14:12:46;12.52;;;3.50;;
53519;SDS011;39397;53.204;5.778;2022-10-17T14:15:13;12.57;;;3.20;;
53519;SDS011;39397;53.204;5.778;2022-10-17T14:17:39;8.93;;;2.72;;
53519;SDS011;39397;53.204;5.778;2022-10-17T14:20:07;9.02;;;2.90;;
53519;SDS011;39397;53.204;5.778;2022-10-17T14:22:41;11.05;;;3.42;;
53519;SDS011;39397;53.204;5.778;2022-10-17T14:28:00;11.95;;;3.00;;
53519;SDS011;39397;53.204;5.778;2022-10-17T14:30:37;9.07;;;4.28;;
53519;SDS011;39397;53.204;5.778;2022-10-17T14:33:05;8.20;;;3.75;;
53519;SDS011;39397;53.204;5.778;2022-10-17T14:35:51;10.30;;;2.90;;
53519;SDS011;39397;53.204;5.778;2022-10-17T14:38:18;6.22;;;2.60;;
53519;SDS011;39397;53.204;5.778;2022-10-17T14:40:52;7.30;;;2.45;;
53519;SDS011;39397;53.204;5.778;2022-10-17T14:43:29;9.75;;;3.20;;
53519;SDS011;39397;53.204;5.778;2022-10-17T14:45:57;7.30;;;2.78;;
53519;SDS011;39397;53.204;5.778;2022-10-17T14:48:24;10.48;;;3.60;;
53519;SDS011;39397;53.204;5.778;2022-10-17T14:51:05;10.05;;;3.50;;
53519;SDS011;39397;53.204;5.778;2022-10-17T14:53:41;7.60;;;3.25;;
53519;SDS011;39397;53.204;5.778;2022-10-17T14:56:23;7.72;;;2.85;;
53519;SDS011;39397;53.204;5.778;2022-10-17T14:58:51;8.32;;;2.95;;
53519;SDS011;39397;53.204;5.778;2022-10-17T15:01:17;8.15;;;3.03;;
53519;SDS011;39397;53.204;5.778;2022-10-17T15:03:43;8.70;;;3.40;;
53519;SDS011;39397;53.204;5.778;2022-10-17T15:06:25;9.50;;;3.80;;
53519;SDS011;39397;53.204;5.778;2022-10-17T15:08:52;7.75;;;3.20;;
53519;SDS011;39397;53.204;5.778;2022-10-17T15:11:18;6.97;;;3.08;;
53519;SDS011;39397;53.204;5.778;2022-10-17T15:13:44;8.38;;;3.15;;
53519;SDS011;39397;53.204;5.778;2022-10-17T15:16:20;6.90;;;3.25;;
53519;SDS011;39397;53.204;5.778;2022-10-17T15:18:51;8.48;;;3.38;;
53519;SDS011;39397;53.204;5.778;2022-10-17T15:21:19;7.22;;;2.90;;
53519;SDS011;39397;53.204;5.778;2022-10-17T15:23:46;7.55;;;3.25;;
53519;SDS011;39397;53.204;5.778;2022-10-17T15:26:17;8.52;;;3.20;;
53519;SDS011;39397;53.204;5.778;2022-10-17T15:28:44;8.85;;;2.90;;
53519;SDS011;39397;53.204;5.778;2022-10-17T15:31:12;10.65;;;3.30;;
53519;SDS011;39397;53.204;5.778;2022-10-17T15:33:39;8.75;;;3.28;;
53519;SDS011;39397;53.204;5.778;2022-10-17T15:36:15;8.48;;;3.60;;
53519;SDS011;39397;53.204;5.778;2022-10-17T15:38:47;7.15;;;3.17;;
53519;SDS011;39397;53.204;5.778;2022-10-17T15:41:14;10.40;;;3.47;;
53519;SDS011;39397;53.204;5.778;2022-10-17T15:43:40;9.63;;;3.42;;
53519;SDS011;39397;53.204;5.778;2022-10-17T15:46:10;9.93;;;3.00;;
53519;SDS011;39397;53.204;5.778;2022-10-17T15:48:38;14.52;;;3.67;;
53519;SDS011;39397;53.204;5.778;2022-10-17T15:51:04;9.43;;;3.30;;
53519;SDS011;39397;53.204;5.778;2022-10-17T15:53:29;7.43;;;3.35;;
53519;SDS011;39397;53.204;5.778;2022-10-17T15:55:55;9.45;;;3.45;;
53519;SDS011;39397;53.204;5.778;2022-10-17T15:58:22;6.30;;;3.22;;
53519;SDS011;39397;53.204;5.778;2022-10-17T16:00:47;9.98;;;3.58;;
53519;SDS011;39397;53.204;5.778;2022-10-17T16:03:13;7.95;;;2.88;;
53519;SDS011;39397;53.204;5.778;2022-10-17T16:05:39;8.52;;;3.85;;
53519;SDS011;39397;53.204;5.778;2022-10-17T16:08:04;7.43;;;3.53;;
53519;SDS011;39397;53.204;5.778;2022-10-17T16:10:30;9.48;;;3.17;;
53519;SDS011;39397;53.204;5.778;2022-10-17T16:12:56;7.38;;;3.53;;
53519;SDS011;39397;53.204;5.778;2022-10-17T16:15:25;9.35;;;3.97;;
53519;SDS011;39397;53.204;5.778;2022-10-17T16:17:53;7.65;;;3.47;;
53519;SDS011;39397;53.204;5.778;2022-10-17T16:20:20;8.98;;;3.65;;
53519;SDS011;39397;53.204;5.778;2022-10-17T16:22:47;9.60;;;3.40;;
53519;SDS011;39397;53.204;5.778;2022-10-17T16:25:15;7.28;;;3.17;;
53519;SDS011;39397;53.204;5.778;2022-10-17T16:27:44;7.38;;;3.50;;
53519;SDS011;39397;53.204;5.778;2022-10-17T16:30:11;6.22;;;3.50;;
53519;SDS011;39397;53.204;5.778;2022-10-17T16:32:37;10.70;;;4.03;;
53519;SDS011;39397;53.204;5.778;2022-10-17T16:35:04;8.20;;;4.28;;
53519;SDS011;39397;53.204;5.778;2022-10-17T16:37:30;11.90;;;4.43;;
53519;SDS011;39397;53.204;5.778;2022-10-17T16:39:56;8.98;;;4.28;;
53519;SDS011;39397;53.204;5.778;2022-10-17T16:42:22;8.23;;;3.92;;
53519;SDS011;39397;53.204;5.778;2022-10-17T16:44:48;10.40;;;4.40;;
53519;SDS011;39397;53.204;5.778;2022-10-17T16:47:14;9.70;;;4.10;;
53519;SDS011;39397;53.204;5.778;2022-10-17T16:49:40;11.50;;;4.18;;
53519;SDS011;39397;53.204;5.778;2022-10-17T16:52:06;7.78;;;3.95;;
53519;SDS011;39397;53.204;5.778;2022-10-17T16:54:32;9.38;;;4.05;;
53519;SDS011;39397;53.204;5.778;2022-10-17T16:56:59;10.82;;;3.72;;
53519;SDS011;39397;53.204;5.778;2022-10-17T16:59:26;11.20;;;3.70;;
53519;SDS011;39397;53.204;5.778;2022-10-17T17:01:52;10.18;;;3.65;;
53519;SDS011;39397;53.204;5.778;2022-10-17T17:04:18;11.10;;;3.40;;
53519;SDS011;39397;53.204;5.778;2022-10-17T17:06:43;16.25;;;4.90;;
53519;SDS011;39397;53.204;5.778;2022-10-17T17:09:09;15.52;;;6.50;;
53519;SDS011;39397;53.204;5.778;2022-10-17T17:11:35;18.92;;;10.40;;
53519;SDS011;39397;53.204;5.778;2022-10-17T17:14:01;12.68;;;4.25;;